Time;durP1;ratioP1;P1;durP2;ratioP2;P2;SDS_P1;SDS_P2;PMS_P1;PMS_P2;Temp;Humidity;BMP_temperature;BMP_pressure;BME280_temperature;BME280_humidity;BME280_pressure;Samples;Min_cycle;Max_cycle;Signal;HPM_P1;HPM_P2
2022/05/26 00:02:03;;;;;;;71.32;45.88;;;;;;;17.65;80.20;99576.56;5012691;28;20109;-74
2022/05/26 00:04:29;;;;;;;75.43;48.47;;;;;;;17.69;80.13;99580.25;5012696;28;20474;-74
2022/05/26 00:06:59;;;;;;;67.95;43.97;;;;;;;17.62;80.59;99583.78;5012822;28;20029;-74
2022/05/26 00:09:25;;;;;;;74.32;45.72;;;;;;;17.56;80.85;99590.13;5012809;28;20060;-74
2022/05/26 00:11:50;;;;;;;71.50;46.85;;;;;;;17.44;81.53;99571.38;5012603;28;20065;-73
2022/05/26 00:14:16;;;;;;;76.18;47.50;;;;;;;17.45;82.10;99589.97;5012524;28;20033;-73
2022/05/26 00:16:44;;;;;;;75.90;47.70;;;;;;;17.71;81.08;99577.84;5010411;28;20112;-74
2022/05/26 00:19:11;;;;;;;73.63;46.72;;;;;;;18.04;79.65;99576.31;5011242;28;20029;-73
2022/05/26 00:21:37;;;;;;;67.90;43.90;;;;;;;18.09;78.26;99567.47;5012524;28;20025;-74
2022/05/26 00:24:03;;;;;;;65.22;44.15;;;;;;;18.27;78.07;99571.75;5011554;28;20033;-74
2022/05/26 00:26:29;;;;;;;65.55;42.00;;;;;;;18.28;77.23;99573.38;5012199;28;20448;-74
2022/05/26 00:28:54;;;;;;;76.93;43.75;;;;;;;18.38;76.99;99562.19;5012440;28;20030;-73
2022/05/26 00:31:20;;;;;;;70.57;44.15;;;;;;;18.58;76.24;99567.69;5009841;28;20026;-73
2022/05/26 00:33:46;;;;;;;68.55;44.65;;;;;;;18.48;76.49;99563.53;5009907;28;20030;-73
2022/05/26 00:36:14;;;;;;;70.13;45.10;;;;;;;18.02;78.77;99570.22;5012087;28;20496;-73
2022/05/26 00:38:40;;;;;;;86.25;50.35;;;;;;;17.43;81.96;99556.41;5011095;28;20522;-75
2022/05/26 00:41:08;;;;;;;72.60;48.05;;;;;;;17.53;81.71;99567.09;5020366;28;20033;-74
2022/05/26 00:43:34;;;;;;;81.07;48.97;;;;;;;17.78;80.90;99563.81;5020708;28;20030;-74
2022/05/26 00:46:28;;;;;;;74.15;47.92;;;;;;;17.80;80.35;99552.94;4997223;28;20018;-74
2022/05/26 00:48:58;;;;;;;74.68;49.75;;;;;;;17.22;83.24;99566.19;5031522;28;20037;-73
2022/05/26 00:51:29;;;;;;;86.13;52.00;;;;;;;16.97;84.61;99563.72;5032368;28;20478;-74
2022/05/26 00:53:59;;;;;;;79.53;50.92;;;;;;;17.41;82.75;99564.47;5031782;28;20029;-73
2022/05/26 00:56:54;;;;;;;81.88;49.50;;;;;;;17.67;81.22;99545.88;5018230;28;20036;-73
2022/05/26 00:59:34;;;;;;;72.13;46.30;;;;;;;17.62;81.01;99549.84;5012130;28;20033;-73
2022/05/26 01:01:59;;;;;;;80.65;48.85;;;;;;;17.57;81.24;99547.34;4990812;28;20050;-73
2022/05/26 01:04:34;;;;;;;72.65;47.72;;;;;;;17.47;82.01;99545.19;4997938;28;20029;-74
2022/05/26 01:07:19;;;;;;;73.63;48.83;;;;;;;17.17;83.89;99543.91;5011943;28;20041;-74
2022/05/26 01:09:45;;;;;;;78.10;51.88;;;;;;;17.26;83.65;99561.41;5012241;28;20029;-73
2022/05/26 01:12:11;;;;;;;84.32;52.08;;;;;;;16.96;85.45;99561.28;5011902;28;20567;-73
2022/05/26 01:14:46;;;;;;;76.82;52.10;;;;;;;16.62;86.68;99561.84;5009800;28;20021;-74
2022/05/26 01:17:38;;;;;;;91.10;55.40;;;;;;;16.24;88.66;99560.72;5019913;28;20033;-73
2022/05/26 01:20:23;;;;;;;87.53;54.95;;;;;;;16.17;88.46;99557.72;5028730;28;20103;-74
2022/05/26 01:23:15;;;;;;;85.80;55.50;;;;;;;16.04;88.92;99563.50;5013503;28;20365;-73
2022/05/26 01:25:59;;;;;;;88.57;56.03;;;;;;;16.03;88.76;99553.41;5011802;28;20030;-73
2022/05/26 01:29:02;;;;;;;93.40;57.20;;;;;;;15.88;90.12;99562.72;5011696;28;20053;-73
2022/05/26 01:31:49;;;;;;;88.68;54.33;;;;;;;16.04;88.82;99559.88;5011613;28;20041;-74
2022/05/26 01:34:17;;;;;;;81.72;52.50;;;;;;;16.16;88.08;99547.63;5014837;28;20503;-74
2022/05/26 01:37:13;;;;;;;81.00;50.88;;;;;;;16.23;87.17;99553.44;5013482;28;20422;-74
2022/05/26 01:39:56;;;;;;;86.30;51.28;;;;;;;16.50;85.80;99537.44;5008699;28;20026;-73
2022/05/26 01:42:58;;;;;;;84.70;49.92;;;;;;;16.79;84.22;99526.66;5035205;28;20041;-73
2022/05/26 01:45:35;;;;;;;73.38;50.10;;;;;;;16.97;83.60;99537.47;5033744;28;20048;-73
2022/05/26 01:48:06;;;;;;;78.88;51.47;;;;;;;16.44;85.35;99555.06;5035136;28;20030;-73
2022/05/26 01:50:52;;;;;;;83.97;53.65;;;;;;;16.30;86.69;99564.06;5032299;28;20112;-73
2022/05/26 01:53:51;;;;;;;77.97;49.47;;;;;;;16.52;85.84;99554.00;5015358;28;20076;-73
2022/05/26 01:56:34;;;;;;;84.35;53.08;;;;;;;16.34;87.20;99557.28;5014097;28;20030;-73
2022/05/26 01:59:11;;;;;;;80.97;54.05;;;;;;;16.48;86.66;99539.00;5015229;28;20432;-73
2022/05/26 02:01:42;;;;;;;84.65;53.17;;;;;;;16.55;85.94;99545.59;5014975;28;20046;-73
2022/05/26 02:04:17;;;;;;;86.35;54.33;;;;;;;16.27;87.38;99548.66;5014974;28;20037;-73
2022/05/26 02:06:51;;;;;;;79.38;52.00;;;;;;;16.32;87.18;99565.31;5014904;28;20455;-73
2022/05/26 02:09:24;;;;;;;73.50;50.88;;;;;;;16.50;86.22;99559.19;5014760;28;20037;-74
2022/05/26 02:12:01;;;;;;;78.22;51.35;;;;;;;16.38;85.88;99563.00;5009960;28;20022;-73
2022/05/26 02:14:44;;;;;;;85.13;53.70;;;;;;;15.96;88.25;99564.56;5014911;28;20022;-73
2022/05/26 02:17:17;;;;;;;87.00;55.13;;;;;;;15.96;88.30;99568.19;5014926;28;20108;-73
2022/05/26 02:19:54;;;;;;;85.93;54.55;;;;;;;15.85;88.25;99559.47;5015999;28;20030;-73
2022/05/26 02:22:41;;;;;;;100.78;55.95;;;;;;;15.68;89.42;99546.59;5012763;28;20488;-73
2022/05/26 02:25:16;;;;;;;90.93;56.85;;;;;;;15.69;90.08;99561.53;5014675;28;20472;-73
2022/05/26 02:27:42;;;;;;;91.50;55.42;;;;;;;15.67;90.03;99546.97;5014746;28;20030;-73
2022/05/26 02:30:09;;;;;;;84.90;54.55;;;;;;;15.62;90.04;99544.44;5014509;28;20627;-73
2022/05/26 02:32:39;;;;;;;81.03;54.67;;;;;;;15.77;89.38;99560.50;5014619;28;20085;-73
2022/05/26 02:35:14;;;;;;;90.22;56.47;;;;;;;15.60;89.61;99580.63;5014385;28;20017;-73
2022/05/26 02:37:41;;;;;;;88.07;54.45;;;;;;;15.37;90.84;99581.31;5014335;28;20381;-73
2022/05/26 02:40:08;;;;;;;89.22;56.78;;;;;;;15.32;91.37;99578.75;5014473;28;20083;-73
2022/05/26 02:43:02;;;;;;;85.07;55.25;;;;;;;15.35;91.55;99569.59;5018007;28;20511;-73
2022/05/26 02:46:03;;;;;;;125.05;58.67;;;;;;;15.53;90.63;99564.38;5012973;28;20021;-73
2022/05/26 02:49:10;;;;;;;84.95;55.03;;;;;;;15.45;90.43;99560.56;5012870;28;20038;-73
2022/05/26 02:51:57;;;;;;;100.85;57.60;;;;;;;15.42;91.65;99579.03;5014125;28;20099;-73
2022/05/26 02:55:00;;;;;;;99.43;59.85;;;;;;;15.48;92.79;99573.94;5014153;28;20018;-74
2022/05/26 02:58:04;;;;;;;86.35;56.65;;;;;;;15.62;90.99;99564.16;5027626;28;20022;-73
2022/05/26 03:00:38;;;;;;;87.90;55.50;;;;;;;15.62;91.11;99544.44;5007361;28;20037;-74
2022/05/26 03:03:23;;;;;;;88.40;52.95;;;;;;;15.80;90.03;99556.91;5013894;28;20038;-74
2022/05/26 03:06:05;;;;;;;90.55;53.53;;;;;;;15.72;90.17;99538.22;5012871;28;20030;-74
2022/05/26 03:08:36;;;;;;;81.10;53.63;;;;;;;15.95;89.27;99554.47;5012545;28;20021;-73
2022/05/26 03:11:09;;;;;;;89.18;52.90;;;;;;;15.93;90.65;99570.94;5012791;28;20029;-73
2022/05/26 03:13:35;;;;;;;87.10;54.97;;;;;;;15.99;90.90;99549.72;5012562;28;20028;-73
2022/05/26 03:16:02;;;;;;;84.82;52.70;;;;;;;16.12;90.20;99564.50;5015015;28;20084;-73
2022/05/26 03:18:28;;;;;;;90.88;53.10;;;;;;;16.12;90.67;99556.03;5019375;28;20026;-74
2022/05/26 03:20:53;;;;;;;107.57;59.10;;;;;;;16.09;89.86;99557.59;5002384;28;20112;-73
2022/05/26 03:23:19;;;;;;;84.22;55.03;;;;;;;16.16;89.15;99567.38;4993669;28;20026;-74
2022/05/26 03:25:45;;;;;;;90.70;53.35;;;;;;;15.92;90.03;99556.03;4994952;28;20386;-73
2022/05/26 03:28:11;;;;;;;86.35;53.92;;;;;;;15.80;90.45;99545.63;5013324;28;20406;-73
2022/05/26 03:30:38;;;;;;;86.72;54.35;;;;;;;15.92;90.13;99552.38;4999990;28;20056;-73
2022/05/26 03:33:04;;;;;;;83.55;52.90;;;;;;;16.02;90.33;99556.63;5008812;28;20121;-74
2022/05/26 03:40:58;;;;;;;84.45;54.67;;;;;;;15.92;90.93;99541.09;4993603;28;20101;-73
2022/05/26 03:43:29;;;;;;;96.25;52.72;;;;;;;16.07;90.12;99557.16;4993480;28;20030;-74
2022/05/26 03:45:58;;;;;;;84.80;53.22;;;;;;;15.75;91.77;99548.75;4994042;28;20480;-73
2022/05/26 03:48:23;;;;;;;79.70;52.72;;;;;;;15.81;92.66;99558.59;4993202;28;20574;-74
2022/05/26 03:50:48;;;;;;;89.07;54.88;;;;;;;15.77;92.97;99574.59;4998860;28;20027;-74
2022/05/26 03:53:14;;;;;;;85.28;54.30;;;;;;;15.97;92.03;99566.19;4994369;28;21231;-73
2022/05/26 03:55:40;;;;;;;88.15;51.92;;;;;;;15.86;90.75;99557.44;5016073;28;20045;-73
2022/05/26 03:58:06;;;;;;;89.80;56.85;;;;;;;15.57;92.77;99554.81;5012896;28;20381;-74
2022/05/26 04:00:32;;;;;;;104.50;57.22;;;;;;;15.44;93.31;99564.56;5024239;28;20032;-72
2022/05/26 04:02:57;;;;;;;90.22;58.05;;;;;;;15.23;94.16;99557.22;5025023;28;20042;-73
2022/05/26 04:05:23;;;;;;;90.25;56.83;;;;;;;15.27;94.27;99560.94;4996357;28;20424;-71
2022/05/26 04:07:48;;;;;;;93.50;59.20;;;;;;;15.31;94.11;99563.84;5011319;28;20026;-71
2022/05/26 04:10:15;;;;;;;91.50;58.22;;;;;;;15.29;94.00;99571.84;5010028;28;20024;-71
2022/05/26 04:12:44;;;;;;;88.53;59.33;;;;;;;15.22;95.03;99583.78;5012324;28;20044;-72
2022/05/26 04:15:10;;;;;;;103.78;58.72;;;;;;;15.43;93.96;99586.28;5011161;28;20060;-71
2022/05/26 04:17:36;;;;;;;94.22;58.53;;;;;;;15.49;94.16;99591.66;5012595;28;20030;-72
2022/05/26 04:20:03;;;;;;;87.65;57.28;;;;;;;15.61;93.62;99585.91;5011953;28;20101;-70
2022/05/26 04:22:29;;;;;;;93.90;55.60;;;;;;;15.79;93.02;99577.84;5006039;28;20029;-72
2022/05/26 04:24:58;;;;;;;90.20;53.20;;;;;;;16.03;92.25;99578.00;5005284;28;20029;-72
2022/05/26 04:27:27;;;;;;;82.57;50.55;;;;;;;16.33;90.94;99583.88;5012333;28;20030;-72
2022/05/26 04:29:53;;;;;;;84.53;51.75;;;;;;;16.49;89.18;99586.63;5012479;28;20480;-72
2022/05/26 04:32:21;;;;;;;91.97;53.17;;;;;;;16.47;89.39;99591.84;5011081;28;20057;-72
2022/05/26 04:34:48;;;;;;;78.78;52.63;;;;;;;16.56;89.19;99600.06;5012115;28;20520;-72
2022/05/26 04:37:15;;;;;;;88.45;52.38;;;;;;;16.78;88.96;99578.69;5012248;28;20135;-72
2022/05/26 04:39:40;;;;;;;75.57;50.30;;;;;;;17.04;87.63;99570.72;5012159;28;20105;-72
2022/05/26 04:42:06;;;;;;;62.60;44.60;;;;;;;17.31;86.31;99571.56;5023271;28;20455;-73
2022/05/26 04:44:38;;;;;;;69.43;45.85;;;;;;;17.48;86.49;99578.72;5005014;28;20034;-73
2022/05/26 04:47:05;;;;;;;65.32;45.63;;;;;;;17.51;85.61;99579.97;5025221;28;20040;-72
2022/05/26 04:49:30;;;;;;;84.28;49.15;;;;;;;17.52;86.09;99579.59;5010540;28;20037;-72
2022/05/26 04:51:56;;;;;;;94.15;47.50;;;;;;;17.77;86.08;99584.00;5010636;28;20447;-73
2022/05/26 04:54:22;;;;;;;76.18;46.45;;;;;;;17.74;85.88;99596.91;5011143;28;20504;-72
2022/05/26 04:56:49;;;;;;;65.72;44.58;;;;;;;17.61;86.07;99573.66;5027510;28;20040;-72
2022/05/26 04:59:15;;;;;;;76.70;49.67;;;;;;;17.48;87.49;99594.88;5014972;28;20032;-72
2022/05/26 05:01:41;;;;;;;73.20;48.05;;;;;;;17.53;87.86;99597.38;5013817;28;20038;-72
2022/05/26 05:04:07;;;;;;;75.60;49.05;;;;;;;17.50;88.20;99601.78;5023587;28;20071;-72
2022/05/26 05:06:33;;;;;;;86.55;49.58;;;;;;;17.52;88.58;99604.22;5019953;28;20033;-72
2022/05/26 05:08:58;;;;;;;76.65;49.75;;;;;;;17.56;89.04;99605.09;5027268;28;20033;-72
2022/05/26 05:11:24;;;;;;;88.53;50.83;;;;;;;17.63;89.11;99612.88;5013901;28;20034;-72
2022/05/26 05:13:50;;;;;;;74.28;50.75;;;;;;;17.76;88.64;99588.84;5011878;28;20026;-72
2022/05/26 05:16:23;;;;;;;83.13;50.22;;;;;;;17.83;88.45;99603.06;5010293;28;20030;-72
2022/05/26 05:18:50;;;;;;;78.25;50.92;;;;;;;17.90;88.62;99610.06;5030192;28;20025;-72
2022/05/26 05:21:22;;;;;;;80.95;51.20;;;;;;;18.05;88.07;99617.56;5028534;28;20040;-72
2022/05/26 05:23:53;;;;;;;69.85;48.08;;;;;;;18.12;87.98;99616.06;5015564;28;20033;-72
2022/05/26 05:26:20;;;;;;;72.18;47.42;;;;;;;18.25;87.61;99623.09;5012090;28;20112;-73
2022/05/26 05:28:51;;;;;;;71.38;48.38;;;;;;;18.36;87.43;99609.06;5012606;28;20104;-72
2022/05/26 05:31:22;;;;;;;76.78;48.33;;;;;;;18.46;87.08;99614.06;5011471;28;20030;-73
2022/05/26 05:33:52;;;;;;;78.03;49.08;;;;;;;18.59;86.82;99617.47;5010334;28;20548;-73
2022/05/26 05:36:24;;;;;;;74.68;47.58;;;;;;;18.58;86.33;99604.50;5011609;28;20060;-73
2022/05/26 05:38:50;;;;;;;81.00;49.08;;;;;;;18.80;86.25;99618.91;4992019;28;20040;-72
2022/05/26 05:41:16;;;;;;;78.28;45.72;;;;;;;18.89;85.90;99627.13;4992013;28;20026;-73
2022/05/26 05:43:42;;;;;;;67.85;42.22;;;;;;;18.96;85.29;99627.16;4990621;28;20034;-72
2022/05/26 05:46:08;;;;;;;72.60;46.25;;;;;;;19.12;84.99;99638.31;4991805;28;20030;-73
2022/05/26 05:48:34;;;;;;;75.40;47.25;;;;;;;19.23;84.87;99632.72;5004495;28;20044;-73
2022/05/26 05:51:00;;;;;;;67.35;45.45;;;;;;;19.33;84.43;99631.22;4999936;28;20452;-72
2022/05/26 05:53:26;;;;;;;72.88;44.75;;;;;;;19.49;84.85;99630.97;5022992;28;20030;-73
2022/05/26 05:55:51;;;;;;;71.53;41.83;;;;;;;19.62;83.35;99637.13;4992914;28;20118;-72
2022/05/26 05:58:17;;;;;;;62.47;41.05;;;;;;;19.74;83.10;99636.81;5004468;28;20092;-72
2022/05/26 06:00:43;;;;;;;71.45;40.42;;;;;;;19.84;81.39;99632.41;5004134;28;20100;-73
2022/05/26 06:03:09;;;;;;;66.60;36.22;;;;;;;20.06;80.98;99636.25;5009035;28;20575;-72
2022/05/26 06:05:34;;;;;;;67.63;39.42;;;;;;;20.24;79.78;99631.91;5006239;28;20477;-73
2022/05/26 06:08:00;;;;;;;66.30;35.13;;;;;;;20.44;78.30;99641.72;4998436;28;20049;-72
2022/05/26 06:10:26;;;;;;;63.35;33.95;;;;;;;20.65;77.48;99642.22;4991374;28;20113;-73
2022/05/26 06:12:51;;;;;;;53.83;33.75;;;;;;;20.77;76.87;99639.03;4991532;28;20503;-73
2022/05/26 06:15:18;;;;;;;50.30;33.10;;;;;;;20.90;75.65;99634.63;4994919;28;20065;-73
2022/05/26 06:17:44;;;;;;;59.58;32.58;;;;;;;21.07;75.81;99642.78;4992036;28;20030;-72
2022/05/26 06:20:11;;;;;;;56.95;31.92;;;;;;;21.24;74.24;99636.31;5009203;28;20384;-72
2022/05/26 06:22:41;;;;;;;71.40;33.65;;;;;;;21.38;74.64;99644.06;5008294;28;20036;-72
2022/05/26 06:25:07;;;;;;;;;;;;;;;21.46;74.38;99642.03;5034555;28;20049;-74
2022/05/26 06:30:19;;;;;;;61.53;30.10;;;;;;;21.85;72.97;99621.28;5030333;28;20033;-76
2022/05/26 06:38:21;;;;;;;56.92;26.77;;;;;;;22.46;70.95;99618.69;5014730;28;20063;-75
2022/05/26 06:40:47;;;;;;;51.38;22.38;;;;;;;22.79;68.62;99625.88;5024252;28;20033;-75
2022/05/26 06:43:14;;;;;;;42.17;21.00;;;;;;;22.99;67.00;99599.72;5021224;28;20566;-75
2022/05/26 06:45:41;;;;;;;42.60;18.55;;;;;;;23.40;64.10;99613.28;5032279;28;20036;-75
2022/05/26 06:48:07;;;;;;;41.17;18.27;;;;;;;23.73;61.88;99610.19;5006395;28;20057;-73
2022/05/26 06:50:33;;;;;;;42.90;15.77;;;;;;;23.84;59.26;99595.78;5012677;28;20058;-80
2022/05/26 06:52:59;;;;;;;27.08;15.02;;;;;;;24.23;53.86;99611.69;5011963;28;20033;-75
2022/05/26 06:55:24;;;;;;;31.35;14.20;;;;;;;24.44;54.10;99615.56;5020368;28;20036;-74
2022/05/26 06:57:50;;;;;;;32.45;12.85;;;;;;;24.66;52.52;99612.44;5013901;28;20469;-74
2022/05/26 07:00:16;;;;;;;25.23;12.50;;;;;;;24.87;51.00;99616.28;5014097;28;20030;-75
2022/05/26 07:02:42;;;;;;;26.02;13.05;;;;;;;25.01;50.43;99618.91;5012449;28;20049;-72
2022/05/26 07:05:10;;;;;;;35.28;11.68;;;;;;;25.20;50.96;99613.72;4999855;28;20034;-74
2022/05/26 07:07:35;;;;;;;26.25;12.63;;;;;;;25.38;50.47;99616.28;5010580;28;20033;-73
2022/05/26 07:10:02;;;;;;;19.58;10.80;;;;;;;25.62;47.31;99620.03;5013813;28;20079;-72
2022/05/26 07:12:28;;;;;;;20.63;10.45;;;;;;;25.78;46.63;99629.97;5013451;28;20061;-73
2022/05/26 07:14:54;;;;;;;23.30;9.98;;;;;;;26.01;44.44;99623.44;5001542;28;20412;-72
2022/05/26 07:17:20;;;;;;;21.83;10.52;;;;;;;26.16;43.22;99631.75;5016013;28;20050;-72
2022/05/26 07:19:46;;;;;;;20.65;9.23;;;;;;;26.25;42.68;99623.44;5014465;28;20429;-72
2022/05/26 07:22:11;;;;;;;22.70;9.48;;;;;;;26.32;42.81;99623.25;5011281;28;20042;-73
2022/05/26 07:24:38;;;;;;;23.63;10.25;;;;;;;26.48;43.22;99633.19;5003888;28;20037;-75
2022/05/26 07:27:04;;;;;;;29.40;10.02;;;;;;;26.68;40.76;99606.56;5005834;28;20396;-72
2022/05/26 07:29:29;;;;;;;27.98;9.15;;;;;;;26.73;40.67;99624.06;5008018;28;20041;-73
2022/05/26 07:31:55;;;;;;;18.65;10.70;;;;;;;26.69;42.42;99631.94;5006832;28;20523;-75
2022/05/26 07:34:21;;;;;;;18.30;9.27;;;;;;;26.82;40.94;99631.25;5004609;28;20026;-74
2022/05/26 07:42:21;;;;;;;35.03;11.68;;;;;;;27.18;41.84;99633.34;5013426;28;20511;-71
2022/05/26 07:44:50;;;;;;;24.42;9.40;;;;;;;27.21;40.36;99635.31;5007731;28;20022;-70
2022/05/26 07:47:16;;;;;;;24.17;8.75;;;;;;;27.27;38.51;99629.84;5011938;28;20042;-71
2022/05/26 07:49:44;;;;;;;23.52;11.20;;;;;;;27.40;39.43;99633.63;5012948;28;20025;-72
2022/05/26 07:52:10;;;;;;;18.73;10.18;;;;;;;27.50;39.37;99639.56;5012763;28;20030;-71
2022/05/26 07:54:37;;;;;;;18.02;8.80;;;;;;;27.70;38.36;99636.63;5007566;28;23405;-71
2022/05/26 07:57:03;;;;;;;19.75;8.73;;;;;;;27.70;37.15;99637.44;5008329;28;20075;-73
2022/05/26 07:59:29;;;;;;;28.20;9.35;;;;;;;27.83;37.34;99649.00;5025305;28;20100;-72
2022/05/26 08:01:55;;;;;;;24.95;8.98;;;;;;;27.93;35.67;99640.56;5014051;28;20049;-75
2022/05/26 08:04:20;;;;;;;20.90;8.32;;;;;;;27.94;35.39;99639.28;5011087;28;20022;-76
2022/05/26 08:06:47;;;;;;;18.98;8.23;;;;;;;28.12;36.34;99639.63;5018034;28;20083;-72
2022/05/26 08:09:18;;;;;;;21.63;9.10;;;;;;;28.20;35.05;99639.44;5011847;28;20053;-74
2022/05/26 08:11:45;;;;;;;15.35;7.07;;;;;;;28.23;34.71;99645.09;5010250;28;20415;-78
2022/05/26 08:14:11;;;;;;;18.10;8.88;;;;;;;28.07;33.83;99640.16;4998546;28;20102;-77
2022/05/26 08:16:37;;;;;;;31.98;8.88;;;;;;;28.34;35.41;99641.91;5007170;28;20053;-75
2022/05/26 08:19:04;;;;;;;16.08;7.13;;;;;;;28.48;35.09;99646.47;5015160;28;20025;-76
2022/05/26 08:21:30;;;;;;;30.92;9.23;;;;;;;28.57;35.01;99654.41;5015607;28;20034;-76
2022/05/26 08:23:56;;;;;;;19.88;8.32;;;;;;;28.51;35.00;99644.75;5007538;28;20032;-76
2022/05/26 08:26:21;;;;;;;17.52;8.05;;;;;;;28.39;34.94;99637.69;5039916;28;20108;-75
2022/05/26 08:28:49;;;;;;;21.55;8.18;;;;;;;28.67;35.30;99646.75;5009271;28;20097;-75
2022/05/26 08:31:15;;;;;;;19.73;8.90;;;;;;;28.87;35.24;99643.72;5021606;28;20033;-76
2022/05/26 08:33:41;;;;;;;22.55;8.02;;;;;;;28.81;34.56;99640.59;5019336;28;20033;-76
2022/05/26 08:36:10;;;;;;;25.17;7.82;;;;;;;28.90;35.90;99641.97;5010010;28;20421;-75
2022/05/26 08:38:36;;;;;;;14.73;8.57;;;;;;;28.97;35.42;99638.88;5013808;28;20107;-78
2022/05/26 08:41:03;;;;;;;26.20;9.68;;;;;;;29.28;36.60;99644.09;5026751;28;20463;-74
2022/05/26 08:43:44;;;;;;;25.85;8.27;;;;;;;29.40;35.43;99640.41;5009866;28;20116;-73
2022/05/26 08:46:17;;;;;;;15.80;8.10;;;;;;;29.47;35.60;99645.16;5018358;28;20025;-73
2022/05/26 08:48:50;;;;;;;16.55;8.13;;;;;;;29.73;35.18;99644.28;5018883;28;20117;-74
2022/05/26 08:51:26;;;;;;;18.40;6.85;;;;;;;29.78;33.10;99643.72;5018547;28;20118;-73
2022/05/26 08:53:53;;;;;;;19.92;7.53;;;;;;;29.81;33.04;99643.59;5011399;28;20721;-75
2022/05/26 08:56:25;;;;;;;18.48;6.53;;;;;;;29.82;32.23;99648.09;5006173;28;20045;-72
2022/05/26 08:59:02;;;;;;;13.40;5.63;;;;;;;30.08;31.22;99645.16;5020832;28;20399;-75
2022/05/26 09:01:32;;;;;;;23.08;5.43;;;;;;;30.05;29.62;99643.22;5002862;28;20133;-74
2022/05/26 09:04:00;;;;;;;21.58;5.50;;;;;;;30.12;29.76;99648.72;5001777;28;20058;-76
2022/05/26 09:06:26;;;;;;;14.23;5.57;;;;;;;30.01;30.38;99648.25;5002942;28;20026;-77
2022/05/26 09:14:29;;;;;;;23.42;7.13;;;;;;;29.55;28.73;99652.28;4999264;28;20030;-74
2022/05/26 09:17:01;;;;;;;13.23;5.38;;;;;;;29.45;28.54;99653.47;5013652;28;20053;-74
2022/05/26 09:19:53;;;;;;;17.77;5.07;;;;;;;29.41;28.30;99653.53;5002737;28;20030;-75
2022/05/26 09:22:40;;;;;;;19.27;5.10;;;;;;;29.40;29.11;99656.88;5010278;28;20204;-77
2022/05/26 09:25:11;;;;;;;32.85;6.30;;;;;;;29.21;27.61;99642.25;5005509;28;20033;-77
2022/05/26 09:27:37;;;;;;;25.15;5.43;;;;;;;29.42;28.32;99654.31;5000558;28;20431;-76
2022/05/26 09:30:22;;;;;;;21.25;4.53;;;;;;;29.50;27.15;99652.88;5006617;28;20057;-77
2022/05/26 09:32:48;;;;;;;8.48;3.92;;;;;;;29.91;28.46;99649.44;5006763;28;20026;-77
2022/05/26 09:35:20;;;;;;;23.08;4.70;;;;;;;30.05;27.53;99659.72;4996313;28;20034;-76
2022/05/26 09:37:49;;;;;;;24.38;7.22;;;;;;;30.07;27.79;99660.84;5009021;28;20025;-76
2022/05/26 09:40:24;;;;;;;18.17;5.83;;;;;;;30.01;27.78;99659.78;5004033;28;20023;-76
2022/05/26 09:42:56;;;;;;;16.88;4.95;;;;;;;30.22;28.43;99645.94;5002523;28;20476;-77
2022/05/26 09:45:23;;;;;;;19.95;5.55;;;;;;;30.44;28.01;99654.59;5022063;28;20395;-75
2022/05/26 09:48:00;;;;;;;13.05;4.60;;;;;;;30.53;27.23;99651.00;5014298;28;20037;-75
2022/05/26 09:50:38;;;;;;;15.88;5.72;;;;;;;30.54;27.83;99646.81;4994510;28;20485;-72
2022/05/26 09:53:09;;;;;;;18.17;5.25;;;;;;;30.62;27.00;99644.47;5000231;28;20113;-72
2022/05/26 09:55:44;;;;;;;13.55;4.95;;;;;;;30.99;28.03;99636.06;4993348;28;20030;-73
2022/05/26 09:58:27;;;;;;;18.33;5.75;;;;;;;31.25;26.83;99647.44;5034569;28;20105;-74
2022/05/26 10:00:56;;;;;;;16.17;4.28;;;;;;;30.87;26.40;99640.63;5012815;28;20022;-73
2022/05/26 10:03:30;;;;;;;11.68;4.88;;;;;;;30.81;26.53;99639.66;5010476;28;20089;-74
2022/05/26 10:06:08;;;;;;;20.15;4.40;;;;;;;31.06;25.85;99632.88;5028510;28;20030;-74
2022/05/26 10:09:18;;;;;;;12.20;5.22;;;;;;;31.13;25.80;99637.56;5026656;28;20052;-74
2022/05/26 10:11:56;;;;;;;11.20;4.75;;;;;;;31.08;26.74;99636.09;5019825;28;20041;-74
2022/05/26 10:14:33;;;;;;;13.57;5.57;;;;;;;31.17;27.05;99632.44;5008086;28;20126;-74
2022/05/26 10:17:19;;;;;;;18.17;5.07;;;;;;;31.33;26.07;99627.72;5026874;28;20609;-74
2022/05/26 10:19:50;;;;;;;18.25;5.03;;;;;;;31.25;26.41;99630.09;5011473;28;20390;-74
2022/05/26 10:22:41;;;;;;;27.13;5.70;;;;;;;31.19;27.69;99635.66;5008082;28;20087;-72
2022/05/26 10:25:29;;;;;;;18.95;5.70;;;;;;;31.17;26.62;99632.44;5013450;28;20460;-72
2022/05/26 10:28:16;;;;;;;13.10;5.15;;;;;;;31.40;27.15;99633.22;5010011;28;20037;-78
2022/05/26 10:30:47;;;;;;;10.13;4.65;;;;;;;31.36;25.99;99618.09;5013687;28;20029;-74
2022/05/26 10:33:29;;;;;;;18.63;5.72;;;;;;;31.16;26.26;99618.47;5017978;28;20031;-74
2022/05/26 10:36:36;;;;;;;9.57;5.22;;;;;;;31.59;26.13;99618.81;5017092;28;20026;-74
2022/05/26 10:39:24;;;;;;;17.92;5.47;;;;;;;31.56;25.96;99603.25;5017095;28;20023;-74
2022/05/26 10:42:27;;;;;;;14.82;4.93;;;;;;;31.36;25.31;99597.88;5021120;28;20539;-73
2022/05/26 10:45:09;;;;;;;10.48;4.88;;;;;;;31.66;25.36;99604.06;5006797;28;20042;-78
2022/05/26 10:47:45;;;;;;;21.02;6.68;;;;;;;31.64;25.59;99603.75;5002616;28;20515;-72
2022/05/26 10:50:14;;;;;;;16.38;5.50;;;;;;;31.84;25.65;99590.94;4998130;28;20443;-72
2022/05/26 10:52:47;;;;;;;9.65;5.15;;;;;;;31.68;25.83;99589.09;5007246;28;20040;-73
2022/05/26 10:55:21;;;;;;;16.45;4.88;;;;;;;31.72;25.45;99589.78;5011680;28;20025;-73
2022/05/26 10:58:37;;;;;;;18.02;5.75;;;;;;;31.61;25.86;99579.47;5012607;28;20058;-73
2022/05/26 11:01:11;;;;;;;19.13;5.75;;;;;;;31.87;25.93;99587.88;5004361;28;20439;-74
2022/05/26 11:03:47;;;;;;;15.40;6.55;;;;;;;31.83;26.84;99581.47;5003942;28;20388;-74
2022/05/26 11:06:26;;;;;;;15.20;5.50;;;;;;;31.96;25.16;99584.19;5011024;28;20037;-74
2022/05/26 11:09:07;;;;;;;10.43;5.35;;;;;;;31.83;25.37;99583.53;5005019;28;20028;-74
2022/05/26 11:11:37;;;;;;;21.35;4.90;;;;;;;31.94;25.23;99566.53;5018751;28;20435;-74
2022/05/26 11:17:23;;;;;;;16.92;4.75;;;;;;;32.15;25.01;99569.75;5003952;28;20045;-74
2022/05/26 11:20:01;;;;;;;11.38;5.10;;;;;;;31.93;24.64;99571.53;4998809;28;20530;-73
2022/05/26 11:22:27;;;;;;;12.63;4.82;;;;;;;31.92;24.72;99561.25;5024184;28;20026;-73
2022/05/26 11:24:56;;;;;;;17.08;5.22;;;;;;;31.96;24.97;99571.84;5008629;28;20461;-74
2022/05/26 11:27:21;;;;;;;12.53;4.60;;;;;;;32.02;25.36;99570.72;5002679;28;20105;-74
2022/05/26 11:29:53;;;;;;;17.50;6.55;;;;;;;32.15;25.40;99556.06;5012839;28;20488;-73
2022/05/26 11:38:45;;;;;;;19.02;5.43;;;;;;;32.87;24.07;99569.28;5019118;28;20104;-74
2022/05/26 11:41:24;;;;;;;14.15;4.95;;;;;;;32.39;24.56;99557.53;5011265;28;20105;-74
2022/05/26 11:44:10;;;;;;;17.73;5.40;;;;;;;32.44;26.01;99551.06;5009619;28;20409;-72
2022/05/26 11:46:41;;;;;;;22.15;5.53;;;;;;;32.56;24.63;99558.75;5006107;28;20432;-73
2022/05/26 11:49:09;;;;;;;12.70;5.50;;;;;;;32.39;24.84;99543.06;5004344;28;20028;-74
2022/05/26 11:51:42;;;;;;;11.02;5.35;;;;;;;32.26;24.38;99546.91;5006521;28;20037;-73
2022/05/26 11:54:10;;;;;;;19.23;5.25;;;;;;;32.13;24.69;99534.72;5001289;28;20796;-74
2022/05/26 11:56:39;;;;;;;15.57;5.63;;;;;;;32.14;25.44;99539.22;5001869;28;20022;-73
2022/05/26 11:59:26;;;;;;;14.65;6.05;;;;;;;32.01;25.28;99542.28;5006016;28;20041;-74
2022/05/26 12:02:00;;;;;;;11.55;5.38;;;;;;;32.24;25.00;99535.03;5007309;28;20444;-74
2022/05/26 12:04:28;;;;;;;14.00;5.43;;;;;;;32.18;25.13;99534.06;5006907;28;20470;-74
2022/05/26 12:06:59;;;;;;;12.10;5.03;;;;;;;32.44;25.01;99533.72;4999712;28;20026;-75
2022/05/26 12:09:46;;;;;;;19.15;6.10;;;;;;;32.67;24.88;99531.41;4999443;28;20136;-73
2022/05/26 12:12:17;;;;;;;12.35;5.03;;;;;;;32.48;24.50;99528.56;5025727;28;20072;-74
2022/05/26 12:14:46;;;;;;;11.82;5.25;;;;;;;32.31;24.69;99519.41;5002619;28;20040;-75
2022/05/26 12:17:30;;;;;;;13.30;4.90;;;;;;;32.48;25.13;99517.00;5010205;28;20033;-74